createdAt,value
2023-01-27T00:00:31.372Z,90.40
2023-01-27T00:02:58.131Z,90.40
2023-01-27T00:05:25.288Z,90.40
2023-01-27T00:07:52.076Z,90.50
2023-01-27T00:10:19.604Z,90.60
2023-01-27T00:13:05.894Z,90.50
2023-01-27T00:15:32.990Z,90.50
2023-01-27T00:17:59.883Z,90.40
2023-01-27T00:20:45.315Z,90.30
2023-01-27T00:23:37.095Z,90.30
2023-01-27T00:26:06.656Z,90.30
2023-01-27T00:28:34.560Z,90.20
2023-01-27T00:31:01.566Z,90.20
2023-01-27T00:33:28.722Z,90.20
2023-01-27T00:36:05.895Z,90.20
2023-01-27T00:38:34.432Z,90.20
2023-01-27T00:41:19.582Z,90.20
2023-01-27T00:43:50.564Z,90.20
2023-01-27T00:46:17.657Z,90.30
2023-01-27T00:48:44.539Z,90.30
2023-01-27T00:51:11.804Z,90.30
2023-01-27T00:53:38.665Z,90.40
2023-01-27T00:56:05.877Z,90.40
2023-01-27T00:58:32.682Z,90.50
2023-01-27T01:01:01.838Z,90.50
2023-01-27T01:03:32.053Z,90.50
2023-01-27T01:05:59.810Z,90.50
2023-01-27T01:08:26.679Z,90.40
2023-01-27T01:10:53.570Z,90.40
2023-01-27T01:13:21.517Z,90.40
2023-01-27T01:15:48.548Z,90.40
2023-01-27T01:18:15.451Z,90.40
2023-01-27T01:20:45.144Z,90.40
2023-01-27T01:23:12.139Z,90.40
2023-01-27T01:25:39.003Z,90.40
2023-01-27T01:28:06.624Z,90.40
2023-01-27T01:30:36.836Z,90.40
2023-01-27T01:33:05.781Z,90.40
2023-01-27T01:35:36.650Z,90.40
2023-01-27T01:38:03.515Z,90.40
2023-01-27T01:40:30.413Z,90.40
2023-01-27T01:42:58.998Z,90.40
2023-01-27T01:45:32.035Z,90.50
2023-01-27T01:48:02.246Z,90.50
2023-01-27T01:50:30.000Z,90.50
2023-01-27T01:52:56.770Z,90.50
2023-01-27T01:55:23.582Z,90.50
2023-01-27T01:57:50.421Z,90.50
2023-01-27T02:00:17.577Z,90.50
2023-01-27T02:02:46.675Z,90.50
2023-01-27T02:05:27.611Z,90.50
2023-01-27T02:08:09.981Z,90.40
2023-01-27T02:10:36.864Z,90.40
2023-01-27T02:13:03.695Z,90.50
2023-01-27T02:15:30.947Z,90.40
2023-01-27T02:17:58.016Z,90.40
2023-01-27T02:20:47.398Z,90.40
2023-01-27T02:23:51.175Z,90.50
2023-01-27T02:26:19.108Z,90.40
2023-01-27T02:28:46.114Z,90.40
2023-01-27T02:31:13.036Z,90.40
2023-01-27T02:33:39.944Z,90.40
2023-01-27T02:36:12.742Z,90.40
2023-01-27T02:38:50.471Z,90.30
2023-01-27T02:41:37.211Z,90.30
2023-01-27T02:44:04.244Z,90.30
2023-01-27T02:46:31.946Z,90.30
2023-01-27T02:48:58.961Z,90.30
2023-01-27T02:51:26.052Z,90.40
2023-01-27T02:53:52.942Z,90.40
2023-01-27T02:56:20.520Z,90.40
2023-01-27T02:58:47.456Z,90.40
2023-01-27T03:01:18.097Z,90.40
2023-01-27T03:03:46.870Z,90.40
2023-01-27T03:06:17.526Z,90.40
2023-01-27T03:08:44.556Z,90.40
2023-01-27T03:11:13.910Z,90.40
2023-01-27T03:13:40.752Z,90.40
2023-01-27T03:16:26.090Z,90.40
2023-01-27T03:18:56.453Z,90.40
2023-01-27T03:21:23.432Z,90.40
2023-01-27T03:23:50.384Z,90.40
2023-01-27T03:26:21.729Z,90.40
2023-01-27T03:29:13.355Z,90.40
2023-01-27T03:31:43.069Z,90.40
2023-01-27T03:34:10.557Z,90.40
2023-01-27T03:37:08.118Z,90.40
2023-01-27T03:39:54.071Z,90.40
2023-01-27T03:42:39.487Z,90.40
2023-01-27T03:45:25.175Z,90.40
2023-01-27T03:47:52.221Z,90.40
2023-01-27T03:50:19.225Z,90.40
2023-01-27T03:53:02.971Z,90.40
2023-01-27T03:55:31.487Z,90.40
2023-01-27T03:58:05.974Z,90.50
2023-01-27T04:00:32.933Z,90.50
2023-01-27T04:03:18.331Z,90.50
2023-01-27T04:06:03.806Z,90.50
2023-01-27T04:08:30.716Z,90.50
2023-01-27T04:11:23.858Z,90.60
2023-01-27T04:13:50.711Z,90.70
2023-01-27T04:16:19.789Z,90.70
2023-01-27T04:18:49.119Z,90.80
2023-01-27T04:21:16.460Z,90.80
2023-01-27T04:23:43.238Z,90.80
2023-01-27T04:26:09.985Z,90.80
2023-01-27T04:28:44.185Z,90.80
2023-01-27T04:31:11.853Z,90.90
2023-01-27T04:33:38.818Z,90.90
2023-01-27T04:36:06.047Z,90.90
2023-01-27T04:38:32.994Z,90.90
2023-01-27T04:40:59.970Z,90.90
2023-01-27T04:43:26.788Z,90.90
2023-01-27T04:45:53.716Z,91.00
2023-01-27T04:48:20.543Z,91.00
2023-01-27T04:50:47.323Z,91.00
2023-01-27T04:53:14.122Z,91.00
2023-01-27T04:55:42.271Z,91.00
2023-01-27T04:58:09.784Z,91.10
2023-01-27T05:00:36.588Z,91.10
2023-01-27T05:03:05.173Z,91.10
2023-01-27T05:05:34.993Z,91.20
2023-01-27T05:08:08.392Z,91.20
2023-01-27T05:10:35.163Z,91.20
2023-01-27T05:13:02.235Z,91.50
2023-01-27T05:15:30.249Z,91.30
2023-01-27T05:17:57.088Z,91.30
2023-01-27T05:20:23.841Z,91.40
2023-01-27T05:22:51.350Z,91.40
2023-01-27T05:25:18.156Z,91.40
2023-01-27T05:27:45.243Z,91.40
2023-01-27T05:30:12.594Z,91.40
2023-01-27T05:32:39.370Z,91.40
2023-01-27T05:35:06.692Z,91.40
2023-01-27T05:37:33.557Z,91.40
2023-01-27T05:40:00.379Z,91.40
2023-01-27T05:42:27.159Z,91.40
2023-01-27T05:44:54.052Z,91.50
2023-01-27T05:47:20.910Z,91.50
2023-01-27T05:49:47.716Z,91.50
2023-01-27T05:52:14.506Z,91.50
2023-01-27T05:54:43.589Z,91.50
2023-01-27T05:57:10.433Z,91.50
2023-01-27T05:59:37.244Z,91.50
2023-01-27T06:02:05.326Z,91.50
2023-01-27T06:04:32.209Z,91.50
2023-01-27T06:06:59.054Z,91.50
2023-01-27T06:09:25.844Z,91.60
2023-01-27T06:11:52.592Z,91.50
2023-01-27T06:14:19.649Z,91.60
2023-01-27T06:16:47.353Z,91.60
2023-01-27T06:19:14.390Z,91.50
2023-01-27T06:21:41.147Z,91.50
2023-01-27T06:24:08.068Z,91.50
2023-01-27T06:26:34.974Z,91.50
2023-01-27T06:29:02.192Z,91.50
2023-01-27T06:31:29.125Z,91.40
2023-01-27T06:33:56.110Z,91.40
2023-01-27T06:36:23.063Z,91.40
2023-01-27T06:38:50.100Z,91.40
2023-01-27T06:41:17.543Z,91.40
2023-01-27T06:43:44.454Z,91.40
2023-01-27T06:46:11.296Z,91.30
2023-01-27T06:48:38.236Z,91.30
2023-01-27T06:51:05.212Z,91.30
2023-01-27T06:53:32.663Z,91.30
2023-01-27T06:56:00.433Z,91.30
2023-01-27T06:58:27.487Z,91.30
2023-01-27T07:00:54.906Z,91.30
2023-01-27T07:03:21.855Z,91.30
2023-01-27T07:05:48.685Z,91.30
2023-01-27T07:08:15.502Z,91.30
2023-01-27T07:10:42.344Z,91.20
2023-01-27T07:13:10.527Z,91.20
2023-01-27T07:15:37.338Z,91.20
2023-01-27T07:18:04.401Z,91.10
2023-01-27T07:20:32.151Z,91.10
2023-01-27T07:23:03.367Z,91.10
2023-01-27T07:25:31.222Z,91.10
2023-01-27T07:27:58.798Z,91.00
2023-01-27T07:30:26.347Z,91.00
2023-01-27T07:32:55.071Z,91.00
2023-01-27T07:35:22.708Z,91.00
2023-01-27T07:37:49.540Z,91.00
2023-01-27T07:40:16.797Z,91.00
2023-01-27T07:42:43.741Z,91.20
2023-01-27T07:45:10.815Z,91.00
2023-01-27T07:47:37.698Z,91.00
2023-01-27T07:50:04.815Z,91.00
2023-01-27T07:52:31.680Z,91.00
2023-01-27T07:54:58.448Z,91.00
2023-01-27T07:57:25.274Z,91.10
2023-01-27T07:59:55.542Z,91.00
2023-01-27T08:02:23.280Z,90.90
2023-01-27T08:04:53.200Z,90.60
2023-01-27T08:07:20.723Z,90.50
2023-01-27T08:09:48.773Z,90.40
2023-01-27T08:12:15.630Z,90.30
2023-01-27T08:14:42.422Z,90.20
2023-01-27T08:17:09.257Z,90.10
2023-01-27T08:19:36.070Z,90.10
2023-01-27T08:22:02.931Z,90.10
2023-01-27T08:24:29.844Z,90.10
2023-01-27T08:26:57.294Z,90.00
2023-01-27T08:29:24.398Z,90.00
2023-01-27T08:31:51.234Z,90.30
2023-01-27T08:34:18.170Z,90.00
2023-01-27T08:36:44.975Z,90.00
2023-01-27T08:39:11.853Z,90.00
2023-01-27T08:41:38.906Z,90.00
2023-01-27T08:44:05.910Z,90.00
2023-01-27T08:46:32.830Z,89.90
2023-01-27T08:48:59.699Z,90.00
2023-01-27T08:51:26.496Z,89.30
2023-01-27T08:53:53.261Z,89.10
2023-01-27T08:56:20.309Z,89.00
2023-01-27T08:58:48.425Z,89.10
2023-01-27T09:01:15.965Z,89.20
2023-01-27T09:03:42.994Z,89.30
2023-01-27T09:06:10.814Z,89.50
2023-01-27T09:08:37.804Z,89.80
2023-01-27T09:11:15.388Z,89.80
2023-01-27T09:13:42.321Z,89.80
2023-01-27T09:16:09.372Z,89.70
2023-01-27T09:18:36.323Z,89.60
2023-01-27T09:21:04.995Z,89.50
2023-01-27T09:23:32.467Z,89.40
2023-01-27T09:25:59.591Z,89.30
2023-01-27T09:28:26.439Z,89.20
2023-01-27T09:30:57.808Z,89.10
2023-01-27T09:33:26.019Z,88.90
2023-01-27T09:36:15.712Z,88.90
2023-01-27T09:38:45.440Z,88.80
2023-01-27T09:41:31.205Z,88.80
2023-01-27T09:44:26.825Z,88.50
2023-01-27T09:47:23.811Z,88.40
2023-01-27T09:50:14.013Z,88.40
2023-01-27T09:52:59.223Z,88.80
2023-01-27T09:55:34.713Z,88.20
2023-01-27T09:58:17.763Z,87.90
2023-01-27T10:01:00.814Z,87.80
2023-01-27T10:03:27.869Z,87.60
2023-01-27T10:05:57.552Z,87.60
2023-01-27T10:08:30.446Z,87.50
2023-01-27T10:11:16.392Z,87.30
2023-01-27T10:14:04.610Z,87.20
2023-01-27T10:16:57.111Z,86.90
2023-01-27T10:19:50.720Z,86.80
2023-01-27T10:22:53.261Z,86.90
2023-01-27T10:25:31.746Z,86.60
2023-01-27T10:27:59.373Z,86.50
2023-01-27T10:31:00.344Z,86.20
2023-01-27T10:33:52.040Z,86.00
2023-01-27T10:36:25.290Z,85.70
2023-01-27T10:39:13.161Z,85.60
2023-01-27T10:41:43.777Z,85.30
2023-01-27T10:44:21.971Z,85.10
2023-01-27T10:47:13.372Z,84.60
2023-01-27T10:49:46.260Z,84.40
2023-01-27T10:52:16.021Z,84.20
2023-01-27T10:54:51.470Z,84.10
2023-01-27T10:57:21.959Z,84.00
2023-01-27T11:00:51.885Z,83.80
2023-01-27T11:03:26.784Z,83.50
2023-01-27T11:05:56.242Z,83.30
2023-01-27T11:08:25.565Z,83.10
2023-01-27T11:11:13.804Z,82.90
2023-01-27T11:13:40.706Z,82.50
2023-01-27T11:16:16.125Z,82.20
2023-01-27T11:18:46.195Z,81.60
2023-01-27T11:21:18.526Z,81.50
2023-01-27T11:23:49.108Z,81.30
2023-01-27T11:26:24.997Z,81.30
2023-01-27T11:29:19.557Z,81.00
2023-01-27T11:32:04.517Z,80.80
2023-01-27T11:34:46.210Z,80.70
2023-01-27T11:37:36.544Z,80.60
2023-01-27T11:40:03.910Z,80.60
2023-01-27T11:42:32.294Z,80.80
2023-01-27T11:44:59.333Z,80.60
2023-01-27T11:47:29.493Z,80.90
2023-01-27T11:49:56.247Z,80.10
2023-01-27T11:52:27.060Z,79.80
2023-01-27T11:55:18.870Z,79.70
2023-01-27T11:57:52.821Z,79.50
2023-01-27T12:00:27.595Z,79.60
2023-01-27T12:03:06.541Z,79.50
2023-01-27T12:05:38.269Z,79.50
2023-01-27T12:08:05.426Z,79.50
2023-01-27T12:10:35.114Z,79.50
2023-01-27T12:13:10.017Z,79.20
2023-01-27T12:15:36.921Z,78.90
2023-01-27T12:18:08.877Z,78.70
2023-01-27T12:21:02.656Z,78.60
2023-01-27T12:23:40.529Z,78.60
2023-01-27T12:26:09.013Z,78.30
2023-01-27T12:28:50.590Z,78.00
2023-01-27T12:31:23.707Z,77.30
2023-01-27T12:34:01.793Z,77.20
2023-01-27T12:36:30.241Z,77.00
2023-01-27T12:39:01.298Z,77.10
2023-01-27T12:41:30.083Z,76.80
2023-01-27T12:44:18.741Z,76.80
2023-01-27T12:47:03.245Z,76.50
2023-01-27T12:49:33.481Z,76.50
2023-01-27T12:52:02.637Z,76.70
2023-01-27T12:54:32.135Z,76.60
2023-01-27T12:57:04.187Z,76.60
2023-01-27T12:59:31.020Z,76.40
2023-01-27T13:02:23.109Z,76.30
2023-01-27T13:05:00.595Z,76.20
2023-01-27T13:07:29.760Z,76.20
2023-01-27T13:10:03.021Z,76.30
2023-01-27T13:12:31.875Z,76.20
2023-01-27T13:15:08.614Z,76.20
2023-01-27T13:17:46.173Z,76.10
2023-01-27T13:20:21.252Z,76.00
2023-01-27T13:22:57.908Z,76.10
2023-01-27T13:25:28.680Z,76.30
2023-01-27T13:27:57.711Z,76.20
2023-01-27T13:30:31.153Z,76.30
2023-01-27T13:33:03.196Z,76.30
2023-01-27T13:35:39.322Z,76.30
2023-01-27T13:38:47.997Z,76.10
2023-01-27T13:41:20.947Z,76.10
2023-01-27T13:43:55.529Z,76.20
2023-01-27T13:46:27.474Z,76.10
2023-01-27T13:48:55.339Z,76.00
2023-01-27T13:51:23.907Z,75.90
2023-01-27T13:54:02.040Z,75.90
2023-01-27T13:56:57.075Z,75.80
2023-01-27T13:59:33.056Z,75.90
2023-01-27T14:02:15.149Z,76.00
2023-01-27T14:04:47.753Z,76.20
2023-01-27T14:07:36.034Z,76.10
2023-01-27T14:10:18.125Z,75.70
2023-01-27T14:12:52.000Z,75.60
2023-01-27T14:15:43.045Z,75.40
2023-01-27T14:18:28.919Z,76.00
2023-01-27T14:21:40.260Z,75.60
2023-01-27T14:24:16.171Z,75.90
2023-01-27T14:27:36.788Z,76.90
2023-01-27T14:30:31.637Z,76.20
2023-01-27T14:33:09.886Z,76.20
2023-01-27T14:35:39.503Z,76.20
2023-01-27T14:38:16.677Z,76.30
2023-01-27T14:41:10.129Z,76.30
2023-01-27T14:43:58.712Z,76.30
2023-01-27T14:46:53.589Z,76.50
2023-01-27T14:49:51.266Z,76.40
2023-01-27T14:52:37.453Z,75.80
2023-01-27T14:55:15.591Z,74.90
2023-01-27T14:57:55.767Z,74.70
2023-01-27T15:00:29.511Z,74.40
2023-01-27T15:03:05.281Z,74.40
2023-01-27T15:05:57.975Z,74.30
2023-01-27T15:08:39.498Z,74.20
2023-01-27T15:11:12.401Z,74.40
2023-01-27T15:13:45.294Z,74.50
2023-01-27T15:16:38.513Z,74.70
2023-01-27T15:19:21.674Z,74.70
2023-01-27T15:22:13.194Z,75.00
2023-01-27T15:24:51.701Z,75.10
2023-01-27T15:27:18.649Z,75.30
2023-01-27T15:29:45.442Z,75.40
2023-01-27T15:32:15.423Z,75.50
2023-01-27T15:34:46.275Z,75.60
2023-01-27T15:37:20.984Z,75.70
2023-01-27T15:40:04.068Z,75.70
2023-01-27T15:43:05.163Z,75.70
2023-01-27T15:45:33.821Z,75.60
2023-01-27T15:48:07.648Z,75.80
2023-01-27T15:50:36.610Z,75.80
2023-01-27T15:53:11.239Z,75.90
2023-01-27T15:55:38.261Z,75.80
2023-01-27T15:58:09.928Z,75.80
2023-01-27T16:00:38.487Z,75.70
2023-01-27T16:03:07.223Z,76.30
2023-01-27T16:05:56.446Z,76.00
2023-01-27T16:08:23.239Z,76.50
2023-01-27T16:10:49.988Z,76.70
2023-01-27T16:13:25.847Z,76.40
2023-01-27T16:16:22.567Z,76.50
2023-01-27T16:19:01.412Z,76.80
2023-01-27T16:21:47.588Z,77.10
2023-01-27T16:24:20.056Z,77.20
2023-01-27T16:26:50.353Z,77.30
2023-01-27T16:29:47.469Z,77.40
2023-01-27T16:32:18.906Z,77.30
2023-01-27T16:34:58.159Z,77.60
2023-01-27T16:37:26.210Z,77.70
2023-01-27T16:40:17.749Z,78.00
2023-01-27T16:43:02.109Z,78.20
2023-01-27T16:45:30.486Z,78.40
2023-01-27T16:48:01.764Z,78.60
2023-01-27T16:50:42.205Z,78.80
2023-01-27T16:53:21.477Z,79.10
2023-01-27T16:56:01.454Z,79.40
2023-01-27T16:58:39.838Z,79.70
2023-01-27T17:01:06.801Z,79.90
2023-01-27T17:03:37.975Z,80.00
2023-01-27T17:06:06.842Z,80.30
2023-01-27T17:08:36.720Z,80.50
2023-01-27T17:11:25.601Z,80.80
2023-01-27T17:14:28.536Z,81.20
2023-01-27T17:17:00.371Z,81.50
2023-01-27T17:19:34.159Z,81.50
2023-01-27T17:22:02.617Z,81.60
2023-01-27T17:24:33.986Z,81.80
2023-01-27T17:27:24.760Z,82.10
2023-01-27T17:29:54.809Z,82.40
2023-01-27T17:32:36.750Z,82.40
2023-01-27T17:35:05.780Z,82.80
2023-01-27T17:37:32.808Z,82.80
2023-01-27T17:40:01.117Z,83.00
2023-01-27T17:42:32.770Z,83.30
2023-01-27T17:45:35.299Z,83.50
2023-01-27T17:48:02.093Z,83.90
2023-01-27T17:50:36.297Z,83.90
2023-01-27T17:53:03.545Z,84.10
2023-01-27T17:55:30.973Z,84.20
2023-01-27T17:58:04.871Z,84.30
2023-01-27T18:00:37.433Z,84.50
2023-01-27T18:03:09.104Z,84.60
2023-01-27T18:05:35.946Z,84.70
2023-01-27T18:08:04.969Z,84.80
2023-01-27T18:10:34.772Z,84.90
2023-01-27T18:13:17.586Z,85.00
2023-01-27T18:16:03.008Z,85.30
2023-01-27T18:18:34.300Z,85.50
2023-01-27T18:21:07.850Z,85.40
2023-01-27T18:23:43.219Z,85.60
2023-01-27T18:26:30.278Z,85.80
2023-01-27T18:29:06.162Z,86.10
2023-01-27T18:31:35.362Z,86.10
2023-01-27T18:34:15.713Z,86.30
2023-01-27T18:37:00.633Z,86.40
2023-01-27T18:39:37.708Z,86.50
2023-01-27T18:42:10.613Z,86.60
2023-01-27T18:44:37.481Z,86.50
2023-01-27T18:47:19.675Z,86.50
2023-01-27T18:49:56.100Z,86.70
2023-01-27T18:52:23.027Z,86.60
2023-01-27T18:54:50.721Z,86.60
2023-01-27T18:57:17.493Z,86.60
2023-01-27T18:59:44.270Z,86.60
2023-01-27T19:02:14.416Z,86.50
2023-01-27T19:04:41.367Z,87.00
2023-01-27T19:07:15.786Z,89.10
2023-01-27T19:09:46.253Z,89.20
2023-01-27T19:12:13.110Z,88.90
2023-01-27T19:14:41.912Z,88.30
2023-01-27T19:17:22.018Z,88.30
2023-01-27T19:19:49.013Z,87.90
2023-01-27T19:22:16.390Z,87.90
2023-01-27T19:24:45.454Z,88.10
2023-01-27T19:27:13.775Z,88.30
2023-01-27T19:29:40.643Z,88.90
2023-01-27T19:32:09.955Z,88.90
2023-01-27T19:34:36.751Z,88.70
2023-01-27T19:37:03.532Z,88.90
2023-01-27T19:39:30.340Z,88.70
2023-01-27T19:41:57.212Z,88.60
2023-01-27T19:44:24.055Z,88.20
2023-01-27T19:46:50.983Z,88.40
2023-01-27T19:49:18.823Z,88.40
2023-01-27T19:51:45.711Z,88.10
2023-01-27T19:54:12.677Z,88.10
2023-01-27T19:56:39.885Z,88.30
2023-01-27T19:59:08.289Z,88.50
2023-01-27T20:01:35.341Z,88.90
2023-01-27T20:04:02.232Z,88.20
2023-01-27T20:06:29.606Z,87.90
2023-01-27T20:08:59.883Z,87.80
2023-01-27T20:11:40.522Z,87.90
2023-01-27T20:14:14.476Z,88.10
2023-01-27T20:16:42.105Z,87.70
2023-01-27T20:19:09.055Z,87.80
2023-01-27T20:21:35.812Z,88.00
2023-01-27T20:24:02.905Z,87.80
2023-01-27T20:26:31.224Z,87.90
2023-01-27T20:28:58.221Z,88.20
2023-01-27T20:31:25.127Z,88.20
2023-01-27T20:33:51.936Z,88.10
2023-01-27T20:36:23.012Z,88.00
2023-01-27T20:38:50.204Z,88.50
2023-01-27T20:41:19.083Z,87.80
2023-01-27T20:43:45.974Z,87.40
2023-01-27T20:46:14.346Z,87.50
2023-01-27T20:48:41.147Z,87.50
2023-01-27T20:51:12.244Z,87.70
2023-01-27T20:53:45.450Z,87.80
2023-01-27T20:56:16.912Z,88.00
2023-01-27T20:58:43.929Z,88.20
2023-01-27T21:01:12.427Z,88.30
2023-01-27T21:03:39.408Z,88.40
2023-01-27T21:06:06.851Z,88.50
2023-01-27T21:08:33.700Z,88.60
2023-01-27T21:11:02.245Z,88.70
2023-01-27T21:13:30.038Z,88.90
2023-01-27T21:15:56.881Z,89.00
2023-01-27T21:18:23.897Z,89.00
2023-01-27T21:20:54.418Z,89.10
2023-01-27T21:23:22.363Z,89.10
2023-01-27T21:25:49.909Z,89.20
2023-01-27T21:28:17.168Z,89.40
2023-01-27T21:30:44.080Z,89.50
2023-01-27T21:33:10.963Z,89.50
2023-01-27T21:35:37.985Z,89.50
2023-01-27T21:38:04.796Z,89.60
2023-01-27T21:40:33.197Z,89.70
2023-01-27T21:43:18.530Z,89.80
2023-01-27T21:45:46.967Z,89.90
2023-01-27T21:48:15.001Z,89.90
2023-01-27T21:50:41.833Z,90.00
2023-01-27T21:53:09.875Z,90.00
2023-01-27T21:55:36.855Z,90.00
2023-01-27T21:58:03.907Z,90.00
2023-01-27T22:00:32.284Z,90.10
2023-01-27T22:03:03.656Z,90.00
2023-01-27T22:05:33.758Z,90.10
2023-01-27T22:08:02.005Z,90.10
2023-01-27T22:10:29.525Z,90.20
2023-01-27T22:12:57.523Z,90.20
2023-01-27T22:15:24.259Z,90.20
2023-01-27T22:17:52.339Z,90.20
2023-01-27T22:20:19.227Z,90.30
2023-01-27T22:22:46.187Z,90.30
2023-01-27T22:25:14.746Z,90.30
2023-01-27T22:27:42.532Z,90.30
2023-01-27T22:30:12.272Z,90.40
2023-01-27T22:32:39.501Z,90.50
2023-01-27T22:35:06.806Z,90.50
2023-01-27T22:37:34.684Z,90.50
2023-01-27T22:40:01.585Z,90.50
2023-01-27T22:42:28.418Z,90.40
2023-01-27T22:44:55.254Z,90.40
2023-01-27T22:47:22.046Z,90.60
2023-01-27T22:49:48.851Z,90.40
2023-01-27T22:52:16.595Z,90.30
2023-01-27T22:54:43.762Z,90.30
2023-01-27T22:57:10.627Z,90.30
2023-01-27T22:59:37.416Z,90.30
2023-01-27T23:02:04.208Z,90.30
2023-01-27T23:04:31.017Z,90.20
2023-01-27T23:06:57.784Z,90.20
2023-01-27T23:09:24.549Z,90.20
2023-01-27T23:11:51.303Z,90.10
2023-01-27T23:14:18.750Z,90.10
2023-01-27T23:16:45.698Z,90.10
2023-01-27T23:19:12.562Z,90.00
2023-01-27T23:21:39.374Z,90.20
2023-01-27T23:24:07.748Z,90.00
2023-01-27T23:26:34.667Z,90.00
2023-01-27T23:29:01.494Z,90.00
2023-01-27T23:31:28.580Z,90.10
2023-01-27T23:33:55.526Z,90.10
2023-01-27T23:36:23.148Z,90.10
2023-01-27T23:38:51.370Z,90.20
2023-01-27T23:41:18.890Z,90.40
2023-01-27T23:43:50.275Z,90.10
2023-01-27T23:46:17.147Z,90.10
2023-01-27T23:48:44.070Z,90.10
2023-01-27T23:51:12.304Z,90.10
2023-01-27T23:53:39.152Z,90.00
2023-01-27T23:56:06.570Z,90.00
2023-01-27T23:58:33.308Z,90.00
